createdAt,value
2019-04-22T00:02:22.424Z,46.20
2019-04-22T00:05:05.788Z,46.00
2019-04-22T00:07:44.968Z,46.20
2019-04-22T00:10:24.238Z,46.00
2019-04-22T00:12:48.546Z,46.00
2019-04-22T00:15:10.160Z,46.20
2019-04-22T00:17:55.312Z,46.50
2019-04-22T00:20:14.478Z,46.20
2019-04-22T00:22:45.529Z,46.50
2019-04-22T00:25:19.773Z,46.70
2019-04-22T00:27:47.718Z,46.80
2019-04-22T00:30:22.064Z,47.00
2019-04-22T00:32:55.868Z,47.20
2019-04-22T00:35:33.223Z,46.90
2019-04-22T00:38:07.717Z,46.90
2019-04-22T00:40:33.925Z,46.80
2019-04-22T00:43:03.071Z,47.60
2019-04-22T00:45:32.869Z,48.90
2019-04-22T00:48:12.250Z,49.30
2019-04-22T00:50:37.458Z,49.00
2019-04-22T00:53:11.570Z,48.80
2019-04-22T00:55:40.517Z,49.30
2019-04-22T00:58:08.274Z,49.30
2019-04-22T01:00:37.905Z,49.50
2019-04-22T01:03:10.952Z,50.30
2019-04-22T01:05:43.875Z,51.00
2019-04-22T01:08:15.181Z,51.10
2019-04-22T01:10:57.043Z,50.90
2019-04-22T01:13:14.110Z,50.20
2019-04-22T01:15:40.264Z,50.20
2019-04-22T01:18:13.232Z,50.10
2019-04-22T01:23:11.000Z,49.30
2019-04-22T01:25:37.488Z,47.80
2019-04-22T01:28:01.361Z,47.60
2019-04-22T01:30:30.358Z,47.70
2019-04-22T01:32:52.914Z,47.60
2019-04-22T01:35:34.584Z,48.70
2019-04-22T01:38:07.974Z,48.70
2019-04-22T01:40:57.721Z,48.70
2019-04-22T01:43:16.778Z,48.80
2019-04-22T01:45:45.041Z,48.70
2019-04-22T01:48:17.624Z,49.00
2019-04-22T01:50:48.431Z,48.50
2019-04-22T01:53:24.554Z,48.90
2019-04-22T01:55:49.997Z,48.70
2019-04-22T01:58:11.189Z,48.00
2019-04-22T02:00:53.620Z,49.20
2019-04-22T02:03:17.256Z,49.90
2019-04-22T02:05:50.454Z,50.00
2019-04-22T02:08:28.436Z,50.30
2019-04-22T02:11:09.344Z,49.80
2019-04-22T02:13:25.213Z,49.90
2019-04-22T02:15:52.433Z,50.00
2019-04-22T02:18:28.788Z,49.80
2019-04-22T02:20:50.328Z,49.90
2019-04-22T02:26:07.584Z,50.40
2019-04-22T02:28:38.483Z,50.80
2019-04-22T02:31:23.185Z,51.20
2019-04-22T02:38:53.174Z,52.00
2019-04-22T02:41:22.872Z,52.30
2019-04-22T02:46:23.317Z,52.10
2019-04-22T02:48:53.399Z,52.50
2019-04-22T02:52:00.405Z,52.80
2019-04-22T02:56:25.648Z,53.00
2019-04-22T03:01:16.291Z,53.70
2019-04-22T03:03:52.714Z,53.80
2019-04-22T03:06:24.468Z,53.50
2019-04-22T03:09:01.451Z,52.90
2019-04-22T03:11:19.027Z,53.40
2019-04-22T03:13:49.446Z,53.60
2019-04-22T03:18:51.308Z,55.20
2019-04-22T03:21:10.637Z,54.30
2019-04-22T03:24:10.278Z,54.30
2019-04-22T03:34:38.286Z,54.30
2019-04-22T03:39:15.416Z,53.10
2019-04-22T03:41:43.333Z,52.90
2019-04-22T03:46:30.117Z,53.40
2019-04-22T03:49:12.152Z,53.70
2019-04-22T03:51:38.876Z,53.90
2019-04-22T03:54:17.491Z,53.90
2019-04-22T03:57:18.155Z,53.80
2019-04-22T03:59:11.622Z,53.30
2019-04-22T04:01:37.174Z,53.00
2019-04-22T04:04:09.079Z,52.60
2019-04-22T04:06:43.195Z,52.90
2019-04-22T04:08:59.253Z,52.80
2019-04-22T04:11:45.645Z,52.80
2019-04-22T04:14:21.937Z,52.80
2019-04-22T04:16:31.606Z,52.90
2019-04-22T04:21:37.908Z,52.40
2019-04-22T04:24:11.264Z,52.10
2019-04-22T04:26:45.580Z,52.00
2019-04-22T04:29:17.285Z,52.30
2019-04-22T04:31:33.791Z,52.30
2019-04-22T04:34:03.651Z,52.40
2019-04-22T04:36:35.524Z,52.60
2019-04-22T04:39:00.013Z,52.70
2019-04-22T04:41:43.255Z,52.30
2019-04-22T04:46:44.842Z,51.90
2019-04-22T04:49:09.766Z,51.70
2019-04-22T04:51:53.671Z,51.70
2019-04-22T04:54:13.224Z,52.00
2019-04-22T04:56:36.485Z,52.30
2019-04-22T04:59:17.326Z,52.20
2019-04-22T05:01:39.747Z,52.60
2019-04-22T05:11:50.222Z,53.00
2019-04-22T05:14:05.474Z,53.20
2019-04-22T05:16:42.832Z,53.00
2019-04-22T05:21:32.819Z,53.40
2019-04-22T05:26:35.515Z,53.70
2019-04-22T05:29:05.571Z,53.50
2019-04-22T05:31:37.219Z,53.50
2019-04-22T05:34:04.516Z,53.40
2019-04-22T05:36:34.431Z,53.10
2019-04-22T05:39:01.902Z,52.80
2019-04-22T05:41:35.258Z,51.90
2019-04-22T05:44:02.835Z,52.30
2019-04-22T05:46:29.869Z,51.80
2019-04-22T05:49:06.035Z,52.70
2019-04-22T05:51:37.192Z,52.80
2019-04-22T05:54:05.809Z,51.30
2019-04-22T05:59:03.644Z,50.30
2019-04-22T06:04:05.290Z,50.80
2019-04-22T06:06:30.666Z,50.60
2019-04-22T06:09:03.953Z,49.50
2019-04-22T06:11:44.790Z,48.90
2019-04-22T06:14:07.888Z,48.70
2019-04-22T06:16:44.357Z,49.00
2019-04-22T06:19:16.818Z,49.80
2019-04-22T06:21:46.225Z,49.50
2019-04-22T06:24:18.972Z,49.80
2019-04-22T06:26:53.549Z,49.70
2019-04-22T06:29:14.966Z,49.20
2019-04-22T06:32:11.590Z,49.10
2019-04-22T06:34:17.451Z,48.70
2019-04-22T06:39:23.507Z,47.80
2019-04-22T06:41:47.954Z,47.90
2019-04-22T06:44:29.812Z,48.00
2019-04-22T06:46:47.228Z,47.20
2019-04-22T06:49:18.797Z,46.60
2019-04-22T06:51:46.555Z,46.80
2019-04-22T06:54:14.689Z,46.40
2019-04-22T06:56:50.636Z,46.80
2019-04-22T06:59:22.998Z,46.10
2019-04-22T07:01:55.003Z,44.90
2019-04-22T07:04:17.240Z,45.90
2019-04-22T07:06:48.730Z,46.30
2019-04-22T07:09:34.996Z,46.50
2019-04-22T07:11:43.941Z,46.30
2019-04-22T07:14:28.340Z,46.30
2019-04-22T07:19:21.890Z,46.90
2019-04-22T07:21:44.129Z,47.20
2019-04-22T07:24:42.095Z,47.10
2019-04-22T07:26:45.044Z,46.80
2019-04-22T07:29:23.255Z,47.00
2019-04-22T07:31:52.967Z,46.60
2019-04-22T07:34:20.822Z,46.20
2019-04-22T07:36:55.168Z,46.30
2019-04-22T07:39:15.758Z,47.00
2019-04-22T07:42:06.842Z,47.20
2019-04-22T07:46:56.294Z,46.70
2019-04-22T07:49:18.351Z,46.60
2019-04-22T07:51:51.377Z,46.30
2019-04-22T07:54:24.418Z,47.00
2019-04-22T07:56:50.741Z,46.60
2019-04-22T07:59:22.470Z,45.50
2019-04-22T08:01:53.788Z,46.90
2019-04-22T08:06:52.290Z,46.70
2019-04-22T08:14:22.460Z,44.60
2019-04-22T08:16:49.386Z,44.60
2019-04-22T08:19:23.185Z,45.00
2019-04-22T08:21:52.130Z,45.40
2019-04-22T08:24:22.744Z,44.60
2019-04-22T08:26:53.114Z,45.20
2019-04-22T08:29:25.409Z,43.80
2019-04-22T08:31:56.652Z,43.70
2019-04-22T08:37:12.350Z,44.20
2019-04-22T08:39:25.585Z,43.10
2019-04-22T08:41:43.394Z,42.80
2019-04-22T08:44:27.637Z,42.70
2019-04-22T08:46:57.727Z,42.90
2019-04-22T08:49:30.197Z,42.80
2019-04-22T08:51:54.959Z,42.40
2019-04-22T08:54:28.289Z,41.60
2019-04-22T08:56:58.252Z,42.40
2019-04-22T08:59:24.741Z,43.20
2019-04-22T09:01:59.632Z,43.90
2019-04-22T09:04:23.328Z,43.90
2019-04-22T09:07:14.125Z,42.70
2019-04-22T09:09:28.480Z,43.00
2019-04-22T09:12:21.955Z,43.50
2019-04-22T09:14:31.241Z,42.00
2019-04-22T09:17:02.381Z,41.30
2019-04-22T09:19:40.521Z,38.30
2019-04-22T09:22:00.504Z,39.50
2019-04-22T09:34:43.278Z,33.90
2019-04-22T09:45:06.065Z,32.50
2019-04-22T09:47:46.844Z,35.10
2019-04-22T09:50:09.738Z,35.20
2019-04-22T09:52:43.761Z,32.10
2019-04-22T09:57:43.862Z,34.00
2019-04-22T10:00:10.943Z,34.40
2019-04-22T10:02:40.642Z,35.70
2019-04-22T10:05:16.786Z,31.60
2019-04-22T10:07:39.179Z,32.40
2019-04-22T10:15:11.300Z,33.60
2019-04-22T10:17:41.784Z,33.40
2019-04-22T10:20:10.533Z,31.70
2019-04-22T10:22:46.516Z,34.40
2019-04-22T10:25:10.465Z,31.20
2019-04-22T10:27:49.436Z,31.90
2019-04-22T10:30:16.872Z,30.90
2019-04-22T10:32:44.678Z,29.80
2019-04-22T10:35:10.251Z,31.20
2019-04-22T10:37:36.363Z,31.70
2019-04-22T10:40:13.626Z,30.40
2019-04-22T10:42:43.592Z,31.80
2019-04-22T10:45:14.470Z,33.30
2019-04-22T10:47:43.450Z,33.40
2019-04-22T10:50:12.630Z,33.80
2019-04-22T10:52:41.465Z,34.60
2019-04-22T10:55:11.718Z,32.80
2019-04-22T10:57:41.019Z,31.80
2019-04-22T11:00:11.374Z,33.40
2019-04-22T11:02:41.434Z,34.50
2019-04-22T11:05:10.733Z,32.80
2019-04-22T11:07:44.235Z,30.20
2019-04-22T11:10:27.366Z,30.30
2019-04-22T11:12:41.456Z,31.90
2019-04-22T11:15:11.772Z,31.50
2019-04-22T11:17:41.690Z,31.70
2019-04-22T11:20:11.385Z,31.50
2019-04-22T11:22:40.743Z,31.70
2019-04-22T11:25:09.829Z,32.20
2019-04-22T11:27:39.076Z,31.40
2019-04-22T11:30:08.998Z,30.80
2019-04-22T11:32:38.197Z,31.10
2019-04-22T11:35:09.874Z,31.00
2019-04-22T11:37:38.717Z,31.50
2019-04-22T11:40:19.282Z,32.20
2019-04-22T11:42:38.616Z,31.70
2019-04-22T11:45:09.059Z,31.80
2019-04-22T11:47:39.250Z,32.60
2019-04-22T11:50:10.326Z,32.00
2019-04-22T11:52:40.527Z,32.70
2019-04-22T11:55:10.814Z,30.80
2019-04-22T11:57:39.604Z,32.10
2019-04-22T12:00:12.999Z,31.60
2019-04-22T12:02:43.274Z,29.40
2019-04-22T12:05:12.155Z,28.90
2019-04-22T12:07:42.400Z,31.30
2019-04-22T12:10:25.560Z,31.50
2019-04-22T12:12:44.836Z,30.30
2019-04-22T12:15:15.028Z,29.10
2019-04-22T12:17:44.518Z,28.00
2019-04-22T12:20:18.416Z,26.90
2019-04-22T12:22:47.284Z,29.40
2019-04-22T12:25:33.562Z,27.00
2019-04-22T12:27:48.972Z,27.40
2019-04-22T12:30:19.587Z,30.40
2019-04-22T12:32:48.671Z,28.20
2019-04-22T12:35:17.873Z,28.10
2019-04-22T12:37:51.482Z,28.10
2019-04-22T12:40:26.948Z,28.60
2019-04-22T12:42:47.397Z,28.50
2019-04-22T12:45:16.580Z,29.20
2019-04-22T12:47:46.271Z,29.50
2019-04-22T12:50:24.082Z,29.80
2019-04-22T12:52:53.300Z,27.30
2019-04-22T12:55:19.582Z,28.40
2019-04-22T12:57:48.609Z,27.10
2019-04-22T13:00:20.606Z,29.60
2019-04-22T13:02:49.169Z,26.90
2019-04-22T13:05:20.154Z,26.30
2019-04-22T13:07:49.579Z,28.00
2019-04-22T13:10:20.131Z,29.30
2019-04-22T13:12:48.980Z,29.80
2019-04-22T13:15:19.995Z,26.80
2019-04-22T13:18:01.073Z,28.60
2019-04-22T13:20:21.928Z,27.70
2019-04-22T13:22:50.571Z,27.30
2019-04-22T13:25:22.870Z,28.90
2019-04-22T13:27:51.158Z,26.40
2019-04-22T13:30:22.865Z,26.90
2019-04-22T13:32:52.679Z,27.60
2019-04-22T13:35:22.213Z,26.40
2019-04-22T13:37:53.038Z,28.80
2019-04-22T13:40:23.197Z,27.00
2019-04-22T13:42:53.555Z,24.80
2019-04-22T13:45:22.624Z,25.60
2019-04-22T13:48:11.066Z,24.80
2019-04-22T13:53:42.815Z,27.80
2019-04-22T13:55:54.711Z,27.00
2019-04-22T13:58:08.678Z,23.90
2019-04-22T14:00:31.065Z,22.70
2019-04-22T14:03:18.570Z,22.50
2019-04-22T14:05:52.885Z,22.40
2019-04-22T14:08:20.699Z,21.70
2019-04-22T14:10:50.284Z,22.70
2019-04-22T14:13:19.623Z,22.50
2019-04-22T14:15:48.678Z,23.30
2019-04-22T14:18:18.972Z,24.60
2019-04-22T14:20:49.012Z,23.20
2019-04-22T14:23:18.021Z,22.00
2019-04-22T14:25:46.810Z,20.80
2019-04-22T14:28:17.946Z,21.40
2019-04-22T14:30:46.446Z,20.50
2019-04-22T14:33:16.263Z,20.30
2019-04-22T14:35:45.799Z,21.30
2019-04-22T14:38:14.402Z,20.40
2019-04-22T14:40:45.317Z,20.90
2019-04-22T14:43:44.894Z,22.80
2019-04-22T14:48:42.288Z,21.30
2019-04-22T14:51:05.263Z,22.50
2019-04-22T14:53:35.247Z,22.70
2019-04-22T14:55:46.503Z,23.90
2019-04-22T14:58:15.243Z,25.40
2019-04-22T15:00:44.280Z,25.10
2019-04-22T15:03:15.580Z,25.30
2019-04-22T15:05:44.295Z,25.60
2019-04-22T15:08:13.131Z,25.00
2019-04-22T15:10:42.274Z,24.00
2019-04-22T15:13:11.624Z,24.70
2019-04-22T15:15:48.940Z,24.90
2019-04-22T15:18:17.645Z,25.10
2019-04-22T15:20:50.977Z,26.20
2019-04-22T15:23:17.968Z,25.40
2019-04-22T15:25:46.708Z,26.90
2019-04-22T15:28:15.427Z,26.00
2019-04-22T15:30:45.594Z,27.10
2019-04-22T15:33:15.217Z,26.90
2019-04-22T15:35:45.154Z,27.10
2019-04-22T15:38:15.409Z,28.10
2019-04-22T15:40:44.824Z,27.50
2019-04-22T15:43:14.844Z,27.60
2019-04-22T15:45:43.806Z,28.30
2019-04-22T15:48:12.237Z,28.10
2019-04-22T15:50:40.695Z,28.90
2019-04-22T15:56:39.035Z,29.10
2019-04-22T15:59:27.265Z,28.50
2019-04-22T16:01:41.115Z,29.00
2019-04-22T16:04:08.604Z,28.80
2019-04-22T16:06:37.037Z,29.70
2019-04-22T16:09:09.070Z,29.30
2019-04-22T16:11:38.078Z,30.60
2019-04-22T16:14:06.690Z,30.40
2019-04-22T16:16:36.914Z,28.80
2019-04-22T16:19:06.799Z,29.70
2019-04-22T16:21:42.390Z,30.40
2019-04-22T16:24:16.138Z,30.70
2019-04-22T16:26:48.657Z,29.70
2019-04-22T16:29:17.178Z,31.00
2019-04-22T16:31:47.458Z,30.30
2019-04-22T16:34:17.391Z,30.40
2019-04-22T16:36:47.124Z,30.00
2019-04-22T16:39:16.383Z,30.60
2019-04-22T16:41:44.877Z,31.50
2019-04-22T16:44:14.331Z,31.30
2019-04-22T16:46:43.640Z,30.70
2019-04-22T16:49:13.765Z,30.60
2019-04-22T16:51:42.796Z,31.90
2019-04-22T16:54:11.831Z,31.60
2019-04-22T16:56:41.799Z,31.00
2019-04-22T16:59:10.867Z,30.80
2019-04-22T17:01:43.759Z,30.90
2019-04-22T17:04:20.766Z,30.80
2019-04-22T17:06:50.811Z,31.30
2019-04-22T17:09:19.727Z,31.10
2019-04-22T17:11:49.760Z,31.60
2019-04-22T17:14:30.502Z,32.40
2019-04-22T17:16:48.668Z,31.50
2019-04-22T17:19:17.389Z,31.20
2019-04-22T17:21:47.558Z,31.40
2019-04-22T17:24:17.493Z,31.70
2019-04-22T17:26:46.453Z,32.00
2019-04-22T17:29:16.624Z,32.50
2019-04-22T17:31:52.787Z,32.00
2019-04-22T17:34:15.778Z,33.30
2019-04-22T17:36:44.709Z,32.60
2019-04-22T17:39:30.636Z,32.60
2019-04-22T17:42:01.976Z,32.30
2019-04-22T17:44:43.874Z,32.80
2019-04-22T17:47:02.473Z,32.80
2019-04-22T17:49:57.859Z,33.00
2019-04-22T17:54:50.173Z,32.10
2019-04-22T17:57:22.498Z,33.00
2019-04-22T17:59:50.485Z,32.60
2019-04-22T18:02:22.675Z,32.80
2019-04-22T18:04:40.234Z,31.90
2019-04-22T18:07:33.006Z,32.50
2019-04-22T18:12:35.780Z,33.70
2019-04-22T18:14:59.543Z,33.00
2019-04-22T18:17:31.441Z,33.40
2019-04-22T18:19:53.148Z,33.80
2019-04-22T18:22:19.928Z,33.50
2019-04-22T18:24:52.901Z,33.20
2019-04-22T18:27:40.195Z,33.40
2019-04-22T18:29:55.590Z,33.80
2019-04-22T18:32:20.305Z,34.40
2019-04-22T18:34:51.542Z,34.90
2019-04-22T18:37:19.868Z,34.60
2019-04-22T18:39:56.955Z,35.30
2019-04-22T18:42:23.859Z,34.90
2019-04-22T18:45:21.680Z,36.00
2019-04-22T18:47:26.715Z,35.70
2019-04-22T18:49:55.465Z,36.10
2019-04-22T18:52:47.039Z,36.10
2019-04-22T18:55:26.865Z,35.80
2019-04-22T18:57:59.060Z,34.80
2019-04-22T19:00:18.027Z,35.60
2019-04-22T19:02:54.030Z,36.20
2019-04-22T19:05:30.322Z,36.10
2019-04-22T19:08:21.491Z,36.00
2019-04-22T19:10:53.515Z,36.40
2019-04-22T19:13:48.995Z,36.80
2019-04-22T19:15:48.786Z,37.40
2019-04-22T19:18:17.064Z,37.00
2019-04-22T19:20:42.393Z,37.60
2019-04-22T19:23:20.998Z,38.80
2019-04-22T19:25:43.890Z,36.80
2019-04-22T19:28:27.847Z,37.30
2019-04-22T19:30:50.847Z,37.40
2019-04-22T19:33:19.093Z,37.30
2019-04-22T19:35:40.173Z,37.50
2019-04-22T19:38:09.337Z,38.20
2019-04-22T19:40:58.247Z,38.70
2019-04-22T19:43:15.530Z,37.20
2019-04-22T19:45:45.911Z,36.50
2019-04-22T19:48:27.055Z,37.30
2019-04-22T19:51:00.112Z,37.20
2019-04-22T19:53:27.701Z,38.90
2019-04-22T19:55:46.434Z,38.50
2019-04-22T19:58:18.214Z,39.20
2019-04-22T20:00:49.415Z,39.30
2019-04-22T20:03:45.676Z,39.90
2019-04-22T20:06:11.390Z,40.10
2019-04-22T20:08:39.583Z,40.50
2019-04-22T20:11:13.312Z,41.50
2019-04-22T20:13:42.785Z,42.00
2019-04-22T20:15:59.733Z,41.00
2019-04-22T20:18:47.734Z,41.90
2019-04-22T20:21:14.273Z,42.40
2019-04-22T20:23:35.179Z,42.40
2019-04-22T20:26:02.351Z,42.50
2019-04-22T20:28:41.773Z,41.90
2019-04-22T20:31:16.100Z,41.40
2019-04-22T20:33:48.168Z,41.60
2019-04-22T20:36:26.820Z,42.10
2019-04-22T20:38:39.900Z,42.30
2019-04-22T20:41:08.966Z,42.40
2019-04-22T20:43:49.574Z,41.90
2019-04-22T20:46:15.094Z,42.50
2019-04-22T20:48:48.304Z,43.00
2019-04-22T20:51:14.071Z,42.70
2019-04-22T20:53:52.818Z,42.40
2019-04-22T20:56:16.027Z,42.60
2019-04-22T20:58:45.240Z,42.50
2019-04-22T21:01:10.400Z,42.80
2019-04-22T21:03:37.337Z,42.70
2019-04-22T21:06:13.080Z,42.40
2019-04-22T21:08:47.330Z,43.00
2019-04-22T21:11:15.266Z,42.50
2019-04-22T21:13:39.781Z,42.30
2019-04-22T21:16:22.368Z,42.20
2019-04-22T21:18:44.740Z,41.60
2019-04-22T21:21:20.385Z,43.00
2019-04-22T21:23:42.168Z,43.00
2019-04-22T21:26:19.534Z,41.90
2019-04-22T21:28:49.016Z,43.40
2019-04-22T21:31:26.585Z,42.70
2019-04-22T21:33:54.455Z,42.30
2019-04-22T21:36:25.036Z,41.80
2019-04-22T21:38:51.278Z,41.80
2019-04-22T21:41:20.047Z,41.20
2019-04-22T21:43:52.543Z,41.50
2019-04-22T21:46:22.357Z,40.70
2019-04-22T21:48:52.892Z,40.90
2019-04-22T21:51:27.506Z,41.20
2019-04-22T21:54:00.268Z,41.30
2019-04-22T21:59:00.112Z,41.20
2019-04-22T22:01:44.741Z,41.20
2019-04-22T22:04:03.304Z,40.70
2019-04-22T22:06:24.931Z,41.40
2019-04-22T22:09:01.277Z,41.10
2019-04-22T22:11:27.835Z,41.10
2019-04-22T22:14:02.706Z,40.90
2019-04-22T22:16:27.389Z,41.10
2019-04-22T22:19:08.150Z,41.60
2019-04-22T22:21:40.683Z,40.80
2019-04-22T22:24:10.177Z,41.40
2019-04-22T22:26:35.062Z,41.10
2019-04-22T22:29:08.882Z,42.20
2019-04-22T22:31:43.227Z,43.00
2019-04-22T22:34:10.961Z,43.40
2019-04-22T22:36:31.297Z,43.60
2019-04-22T22:38:58.497Z,44.00
2019-04-22T22:41:16.077Z,44.40
2019-04-22T22:43:49.056Z,44.90
2019-04-22T22:46:29.649Z,45.60
2019-04-22T22:49:10.271Z,46.20
2019-04-22T22:51:45.220Z,46.30
2019-04-22T22:54:12.021Z,46.50
2019-04-22T22:56:52.960Z,47.10
2019-04-22T22:59:08.110Z,47.30
2019-04-22T23:01:43.591Z,47.30
2019-04-22T23:04:17.704Z,46.80
2019-04-22T23:06:44.365Z,47.70
2019-04-22T23:09:09.996Z,47.20
2019-04-22T23:12:00.256Z,47.20
2019-04-22T23:14:07.494Z,48.00
2019-04-22T23:16:31.274Z,47.90
2019-04-22T23:19:02.751Z,48.10
2019-04-22T23:21:39.785Z,48.40
2019-04-22T23:24:22.761Z,48.50
2019-04-22T23:27:00.242Z,49.30
2019-04-22T23:29:28.519Z,48.40
2019-04-22T23:32:03.287Z,49.00
2019-04-22T23:34:32.784Z,49.10
2019-04-22T23:37:06.858Z,49.30
2019-04-22T23:39:48.390Z,50.10
2019-04-22T23:42:20.872Z,49.10
2019-04-22T23:44:42.268Z,49.20
2019-04-22T23:47:13.803Z,49.80
2019-04-22T23:49:41.990Z,49.70
2019-04-22T23:52:22.761Z,50.10
2019-04-22T23:54:50.944Z,50.50
2019-04-22T23:57:14.950Z,51.00
2019-04-22T23:59:49.520Z,50.10
